New Square, New York
Current Conditions -  °F | °C
As of 8:56 PM on Sunday 21 Dec 2014 (Local Time) from KHPN Reporting Station
Haze Haze  
Wind Chill: 26°   Ceiling: 2000
Heat Index: 32°   Visibility: 6mi
Dew Point: 29°   Wind: 6mph
Humidity: 88%   Direction: 350°N
Pressure: 30.31"   Gusts: NA
Location:  41.1194°N, 74.0479°W
Report Text: KHPN 220156Z 35005KT 6SM BR BKN020 OVC025 00/M02 A3031 RMK AO2 SLP274 T00001017
Loading
Personal Weather Stations






























Interactive Weather Map New forecast layout! Learn more

10-Day Weather Forecast

Advertisements
Track Severe Weather on mobile